DTMB/MIR METAR and TAF weather

Enter ICAO airport designator
Station Type Date Time Source
DTMB METAR 2020/04/04 20:30 UTC NOAA

DTMB 042030Z 35015KT 8000 FEW030 15/11 Q1019


Station Type Date Time Source
DTMB Decoded METAR 2020/04/04 20:30 UTC NOAA

Habib Bourguiba , Tunisia (DTMB) 35-46N 010-45E
Apr 04, 2020 - 04:30 PM EDT / 2020.04.04 2030 UTC
Wind: from the N (350 degrees) at 17 MPH (15 KT):0
Visibility: 4 mile(s):0
Sky conditions: mostly clear
Temperature: 59 F (15 C)
Dew Point: 51 F (11 C)
Relative Humidity: 76%
Pressure (altimeter): 30.09 in. Hg (1019 hPa)
ob: DTMB 042030Z 35015KT 8000 FEW030 15/11 Q1019
cycle: 20

Station Type Date Time Source
DTMB TAF 2020/04/04 18:42 UTC NOAA

TAF TAF DTMB 041700Z 0418/0518 36015KT 9999 FEW030
BECMG 0422/0424 25008KT
BECMG 0507/0509 33012KT
BECMG 0512/0514 05006KT

Example: see airport list